Lady's Island, South Carolina
Current Conditions -  °F | °C
As of 1:55 PM on Monday 20 Oct 2014 (Local Time) from KARW Reporting Station
Overcast Overcast  
Wind Chill: 73°   Ceiling: 3900
Heat Index: 73°   Visibility: 7mi
Dew Point: 61°   Wind: 5mph
Humidity: 65%   Direction: 230°SW
Pressure: 30.05"   Gusts: NA
Location:  32.43°N, 80.62°W
Report Text: KARW 201755Z AUTO 23004KT 7SM BKN039 OVC046 23/16 A3005 RMK AO2
Loading
Personal Weather Stations






























Interactive Weather Map
Tropical Storm Tracking
New forecast layout! Learn more

10-Day Weather Forecast

Advertisements
Track Severe Weather on mobile